Ocean King — CZ2591 — position and weather

sailwx.info

Track history (hours):
 
Tides and Currents Weather Stations Pressure Air Temp Water Temp Dewpoint Dewpoint Depression Visibility Wind Speed Wind Dir Waves Ship Positions

Ocean King

Last reported at 2014-Oct-24 17:33 UTC. Time now 2014-Oct-25 00:38 UTC.
Position N 49°14' W 124°49'.

Length 29 m; draft 4 m.

Type: Fishing. MMSI: 316003514.

Date/timePositionNaut miles runAvg speedWind from/ knotsBaromVisibWave heightAir tempDewpointWater temp
2014-Oct-24 17:33N 49°14' W 124°49'0 0.0
2014-Oct-24 16:33N 49°14' W 124°49'0 0.0
2014-Oct-24 15:33N 49°14' W 124°49'0 0.0
2014-Oct-24 14:33N 49°14' W 124°49'0 0.0
2014-Oct-24 13:33N 49°14' W 124°49'0 0.0
2014-Oct-24 12:33N 49°14' W 124°49'0 0.0
2014-Oct-24 11:33N 49°14' W 124°49'0 0.0
2014-Oct-24 10:33N 49°14' W 124°49'0 0.0
2014-Oct-24 09:33N 49°14' W 124°49'0 0.0
2014-Oct-24 08:33N 49°14' W 124°49'8 7.9
2014-Oct-24 07:33N 49°06' W 124°49'14 6.8
2014-Oct-24 05:33N 48°58' W 125°05'8 8.3
2014-Oct-24 04:34N 48°56' W 125°18'8 8.1
2014-Oct-24 03:34N 48°55' W 125°30'3 3.2
2014-Oct-24 02:34N 48°53' W 125°33'8 7.9
2014-Oct-24 01:34N 48°46' W 125°39'8 8.3
2014-Oct-24 00:33N 48°38' W 125°45'8 8.3
2014-Oct-23 23:32N 48°31' W 125°51'7 6.7
2014-Oct-23 22:34N 48°25' W 125°55'6 4.7
2014-Oct-23 21:16N 48°19' W 125°55'7 3.9
2014-Oct-23 19:33N 48°23' W 126°02'7 2.9
2014-Oct-23 17:07N 48°19' W 125°53'6 3.3
2014-Oct-23 15:23N 48°15' W 125°47'7 5.9
2014-Oct-23 14:13N 48°21' W 125°42'5 7.1
2014-Oct-23 13:33N 48°26' W 125°40'7 7.4
2014-Oct-23 12:34N 48°33' W 125°37'7 7.2
2014-Oct-23 11:34N 48°40' W 125°36'7 7.0
2014-Oct-23 10:33N 48°47' W 125°34'7 7.2
2014-Oct-23 09:33N 48°54' W 125°32'2 2.3
2014-Oct-23 08:33N 48°56' W 125°32'0 0.0
2014-Oct-23 07:34N 48°56' W 125°32'0 0.0
2014-Oct-23 06:33N 48°56' W 125°32'0 0.0
2014-Oct-23 05:34N 48°56' W 125°32'0 0.0
2014-Oct-23 04:34N 48°56' W 125°32'0 0.0
2014-Oct-23 03:33N 48°56' W 125°32'0 0.0
2014-Oct-23 02:34N 48°56' W 125°32'0 0.0
2014-Oct-23 01:34N 48°56' W 125°32'0 0.0
2014-Oct-23 00:34N 48°56' W 125°32'0 0.0
2014-Oct-22 23:34N 48°56' W 125°32'0 0.0
2014-Oct-22 22:33N 48°56' W 125°32'0 0.0
2014-Oct-22 21:34N 48°56' W 125°32'0 0.0
2014-Oct-22 20:33N 48°56' W 125°32'0 0.0
2014-Oct-22 19:34N 48°56' W 125°32'0 0.0
2014-Oct-22 18:34N 48°56' W 125°32'0 0.0
2014-Oct-22 17:34N 48°56' W 125°32'0 0.0
2014-Oct-22 16:34N 48°56' W 125°32'0 0.0
2014-Oct-22 15:33N 48°56' W 125°32'0 0.0
2014-Oct-22 14:34N 48°56' W 125°32'0 0.0
2014-Oct-22 13:34N 48°56' W 125°32'0 0.0
2014-Oct-22 12:34N 48°56' W 125°32'0 0.0
2014-Oct-22 11:34N 48°56' W 125°32'0 0.0
2014-Oct-22 10:34N 48°56' W 125°32'0 0.0
2014-Oct-22 09:33N 48°56' W 125°32'0 0.0
2014-Oct-22 08:34N 48°56' W 125°32'0 0.0
2014-Oct-22 07:34N 48°56' W 125°32'0 0.0
2014-Oct-22 06:34N 48°56' W 125°32'0 0.0
2014-Oct-22 05:34N 48°56' W 125°32'0 0.0
2014-Oct-22 04:34N 48°56' W 125°32'0 0.0
2014-Oct-22 03:34N 48°56' W 125°32'0 0.0
2014-Oct-22 02:34N 48°56' W 125°32'0 0.0
2014-Oct-22 01:33N 48°56' W 125°32'0 0.0
2014-Oct-22 00:34N 48°56' W 125°32'0 0.0
2014-Oct-21 23:34N 48°56' W 125°32'0 0.0
2014-Oct-21 22:34N 48°56' W 125°32'0 0.0
2014-Oct-21 21:33N 48°56' W 125°32'0 0.0
2014-Oct-21 20:33N 48°56' W 125°32'0 0.0
2014-Oct-21 19:34N 48°56' W 125°32'0 0.0
2014-Oct-21 18:34N 48°56' W 125°32'0 0.0
2014-Oct-21 17:34N 48°56' W 125°32'0 0.0
2014-Oct-21 16:33N 48°56' W 125°32'0 0.0
2014-Oct-21 15:33N 48°56' W 125°32'0 0.0
2014-Oct-21 14:34N 48°56' W 125°32'0 0.0
2014-Oct-21 13:34N 48°56' W 125°32'0 0.0
2014-Oct-21 12:33N 48°56' W 125°32'0 0.0
2014-Oct-21 11:34N 48°56' W 125°32'0 0.0
2014-Oct-21 10:34N 48°56' W 125°32'0 0.0
2014-Oct-21 09:34N 48°56' W 125°32'0 0.0
2014-Oct-21 08:34N 48°56' W 125°32'0 0.0
2014-Oct-21 07:34N 48°56' W 125°32'0 0.0
2014-Oct-21 06:34N 48°56' W 125°32'0 0.0
2014-Oct-21 05:34N 48°56' W 125°32'0 0.0
2014-Oct-21 04:34N 48°56' W 125°32'0 0.0
2014-Oct-21 03:34N 48°56' W 125°32'0 0.0
2014-Oct-21 02:34N 48°56' W 125°32'0 0.0
2014-Oct-21 01:33N 48°56' W 125°32'0 0.0
2014-Oct-21 00:34N 48°56' W 125°32'0 0.0
2014-Oct-20 23:34N 48°56' W 125°32'0 0.0
2014-Oct-20 22:34N 48°56' W 125°32'0 0.0
2014-Oct-20 21:34N 48°56' W 125°32'0 0.0
2014-Oct-20 20:34N 48°56' W 125°32'0 0.0
2014-Oct-20 19:34N 48°56' W 125°32'0 0.0
2014-Oct-20 18:34N 48°56' W 125°32'0 0.0
2014-Oct-20 17:34N 48°56' W 125°32'0 0.0
2014-Oct-20 16:34N 48°56' W 125°32'0 0.0
2014-Oct-20 15:33N 48°56' W 125°32'0 0.0
2014-Oct-20 14:34N 48°56' W 125°32'0 0.0
2014-Oct-20 13:34N 48°56' W 125°32'0 0.0
2014-Oct-20 12:34N 48°56' W 125°32'0 0.0
2014-Oct-20 11:33N 48°56' W 125°32'0 0.0
2014-Oct-20 10:34N 48°56' W 125°32'0 0.0
2014-Oct-20 09:34N 48°56' W 125°32'0 0.0
2014-Oct-20 08:34N 48°56' W 125°32'0 0.0
2014-Oct-20 07:34N 48°56' W 125°32'0 0.0
2014-Oct-20 06:33N 48°56' W 125°32'0 0.0
2014-Oct-20 05:34N 48°56' W 125°32'0 0.0
2014-Oct-20 04:34N 48°56' W 125°32'0 0.0
2014-Oct-20 03:33N 48°56' W 125°32'0 0.0
2014-Oct-20 02:34N 48°56' W 125°32'0 0.0
2014-Oct-20 01:34N 48°56' W 125°32'0 0.0
2014-Oct-20 00:34N 48°56' W 125°32'0 0.0
2014-Oct-19 23:34N 48°56' W 125°32'0 0.0
2014-Oct-19 22:34N 48°56' W 125°32'0 0.0
2014-Oct-19 21:34N 48°56' W 125°32'0 0.0
2014-Oct-19 20:34N 48°56' W 125°32'0 0.0
2014-Oct-19 19:34N 48°56' W 125°32'0 0.0
2014-Oct-19 18:34N 48°56' W 125°32'0 0.0
2014-Oct-19 17:34N 48°56' W 125°32'0 0.0
2014-Oct-19 16:34N 48°56' W 125°32'0 0.0
2014-Oct-19 15:33N 48°56' W 125°32'0 0.0
2014-Oct-19 14:34N 48°56' W 125°32'0 0.0
2014-Oct-19 13:34N 48°56' W 125°32'0 0.0
2014-Oct-19 12:33N 48°56' W 125°32'0 0.0
2014-Oct-19 11:34N 48°56' W 125°32'0 0.0
2014-Oct-19 10:34N 48°56' W 125°32'0 0.0
2014-Oct-19 09:33N 48°56' W 125°32'0 0.0
2014-Oct-19 08:34N 48°56' W 125°32'0 0.0
2014-Oct-19 07:34N 48°56' W 125°32'0 0.0
2014-Oct-19 06:34N 48°56' W 125°32'0 0.0
2014-Oct-19 05:34N 48°56' W 125°32'0 0.0
2014-Oct-19 04:33N 48°56' W 125°32'0 0.0
2014-Oct-19 03:34N 48°56' W 125°32'0 0.0
2014-Oct-19 02:34N 48°56' W 125°32'0 0.0
2014-Oct-19 01:34N 48°56' W 125°32'0 0.0
2014-Oct-19 00:34N 48°56' W 125°32'0 0.0
2014-Oct-18 23:34N 48°56' W 125°32'0 0.0
2014-Oct-18 22:34N 48°56' W 125°32'0 0.0
2014-Oct-18 21:34N 48°56' W 125°32'0 0.0
2014-Oct-18 20:33N 48°56' W 125°32'0 0.0
2014-Oct-18 19:33N 48°56' W 125°32'0 0.0
2014-Oct-18 18:34N 48°56' W 125°32'0 0.0
2014-Oct-18 17:33N 48°56' W 125°32'0 0.0
2014-Oct-18 16:33N 48°56' W 125°32'0 0.0
2014-Oct-18 15:34N 48°56' W 125°32'0 0.0
2014-Oct-18 14:34N 48°56' W 125°32'0 0.0
2014-Oct-18 13:33N 48°56' W 125°32'0 0.0
2014-Oct-18 12:34N 48°56' W 125°32'0 0.0
2014-Oct-18 11:33N 48°56' W 125°32'0 0.0
2014-Oct-18 10:34N 48°56' W 125°32'0 0.0
2014-Oct-18 09:34N 48°56' W 125°32'0 0.0
2014-Oct-18 08:34N 48°56' W 125°32'0 0.0
2014-Oct-18 07:34N 48°56' W 125°32'0 0.0
2014-Oct-18 06:34N 48°56' W 125°32'0 0.0
2014-Oct-18 05:34N 48°56' W 125°32'0 0.0
2014-Oct-18 04:34N 48°56' W 125°32'0 0.0
2014-Oct-18 03:34N 48°56' W 125°32'0 0.0
2014-Oct-18 02:34N 48°56' W 125°32'0 0.0
2014-Oct-18 01:33N 48°56' W 125°32'0 0.0
2014-Oct-18 00:34N 48°56' W 125°32'0 0.0
2014-Oct-17 23:34N 48°56' W 125°32'0 0.0
2014-Oct-17 22:34N 48°56' W 125°32'0 0.0
2014-Oct-17 21:34N 48°56' W 125°32'0 0.0
2014-Oct-17 20:34N 48°56' W 125°32'0 0.0
2014-Oct-17 19:34N 48°56' W 125°32'0 0.0
2014-Oct-17 18:34N 48°56' W 125°32'0 0.0
2014-Oct-17 17:33N 48°56' W 125°32'0 0.0
2014-Oct-17 16:34N 48°56' W 125°32'0 0.0
2014-Oct-17 15:34N 48°56' W 125°32'0 0.0
2014-Oct-17 14:33N 48°56' W 125°32'0 0.0
2014-Oct-17 13:34N 48°56' W 125°32'0 0.0
2014-Oct-17 12:34N 48°56' W 125°32'0 0.0
2014-Oct-17 11:34N 48°56' W 125°32'0 0.0
2014-Oct-17 10:34N 48°56' W 125°32'0 0.0
2014-Oct-17 09:33N 48°56' W 125°32'0 0.0
2014-Oct-17 08:34N 48°56' W 125°32'0 0.0
2014-Oct-17 07:34N 48°56' W 125°32'0 0.0
2014-Oct-17 06:34N 48°56' W 125°32'0 0.0
2014-Oct-17 05:34N 48°56' W 125°32'0 0.0
2014-Oct-17 04:33N 48°56' W 125°32'0 0.0
2014-Oct-17 03:34N 48°56' W 125°32'0 0.0
2014-Oct-17 02:33N 48°56' W 125°32'0 0.0
2014-Oct-17 01:34N 48°56' W 125°32'0 0.0
2014-Oct-17 00:34N 48°56' W 125°32'0 0.0
2014-Oct-16 23:34N 48°56' W 125°32'0 0.0
2014-Oct-16 22:34N 48°56' W 125°32'0 0.0
2014-Oct-16 21:34N 48°56' W 125°32'0 0.0
2014-Oct-16 20:34N 48°56' W 125°32'0 0.0
2014-Oct-16 19:34N 48°56' W 125°32'0 0.0
2014-Oct-16 18:34N 48°56' W 125°32'0 0.0
2014-Oct-16 17:34N 48°56' W 125°32'0 0.0
2014-Oct-16 16:34N 48°56' W 125°32'0 0.0
2014-Oct-16 15:34N 48°56' W 125°32'0 0.0
2014-Oct-16 14:34N 48°56' W 125°32'0 0.0
2014-Oct-16 13:34N 48°56' W 125°32'0 0.0
2014-Oct-16 12:34N 48°56' W 125°32'0 0.0
2014-Oct-16 11:34N 48°56' W 125°32'0 0.0
2014-Oct-16 10:34N 48°56' W 125°32'0 0.0
2014-Oct-16 09:34N 48°56' W 125°32'0 0.0
2014-Oct-16 08:34N 48°56' W 125°32'0 0.0
2014-Oct-16 07:33N 48°56' W 125°32'0 0.0
2014-Oct-16 06:34N 48°56' W 125°32'0 0.0
2014-Oct-16 05:34N 48°56' W 125°32'0 0.0
2014-Oct-16 04:34N 48°56' W 125°32'0 0.0
2014-Oct-16 03:34N 48°56' W 125°32'0 0.0
2014-Oct-16 02:34N 48°56' W 125°32'0 0.0
2014-Oct-16 01:34N 48°56' W 125°32'0 0.0
2014-Oct-16 00:34N 48°56' W 125°32'0 0.0
2014-Oct-15 23:33N 48°56' W 125°32'0 0.0
2014-Oct-15 22:34N 48°56' W 125°32'0 0.0
2014-Oct-15 21:34N 48°56' W 125°32'0 0.0
2014-Oct-15 20:34N 48°56' W 125°32'0 0.0
2014-Oct-15 19:34N 48°56' W 125°32'0 0.0
2014-Oct-15 18:34N 48°56' W 125°32'0 0.0
2014-Oct-15 17:34N 48°56' W 125°32'0 0.0
2014-Oct-15 16:34N 48°56' W 125°32'0 0.0
2014-Oct-15 15:34N 48°56' W 125°32'0 0.0
2014-Oct-15 14:34N 48°56' W 125°32'0 0.0
2014-Oct-15 13:34N 48°56' W 125°32'0 0.0
2014-Oct-15 12:33N 48°56' W 125°32'0 0.0
2014-Oct-15 11:34N 48°56' W 125°32'0 0.0
2014-Oct-15 10:34N 48°56' W 125°32'0 0.0
2014-Oct-15 09:34N 48°56' W 125°32'0 0.0
2014-Oct-15 08:34N 48°56' W 125°32'0 0.0
2014-Oct-15 07:34N 48°56' W 125°32'0 0.0
2014-Oct-15 06:34N 48°56' W 125°32'1 1.4
2014-Oct-15 05:34N 48°55' W 125°32'8 7.7
2014-Oct-15 04:34N 48°56' W 125°44'8 7.6
2014-Oct-15 03:34N 48°57' W 125°55'7 7.1
2014-Oct-15 02:33N 48°58' W 126°06'8 7.9
2014-Oct-15 01:33N 48°59' W 126°18'7 7.4
2014-Oct-15 00:33N 48°59' W 126°29'5 4.2
2014-Oct-14 23:24N 48°58' W 126°36'2 2.6
2014-Oct-14 22:28N 49°00' W 126°38'4 3.9
2014-Oct-14 21:30N 49°00' W 126°44'4 3.5
2014-Oct-14 20:26N 49°04' W 126°46'4 3.3
2014-Oct-14 19:18N 49°01' W 126°42'4 5.7
2014-Oct-14 18:33N 48°59' W 126°37'  
Track history (hours):
 
Tides and Currents Weather Stations Pressure Air Temp Water Temp Dewpoint Dewpoint Depression Visibility Wind Speed Wind Dir Waves Ship Positions

Ocean King

Last reported at 2014-Oct-24 17:33 UTC. Time now 2014-Oct-25 00:38 UTC.
Position N 49°14' W 124°49'.

Length 29 m; draft 4 m.

Type: Fishing. MMSI: 316003514.

Date/timePositionNaut miles runAvg speedWind from/ knotsBaromVisibWave heightAir tempDewpointWater temp
2014-Oct-24 17:33N 49°14' W 124°49'0 0.0
2014-Oct-24 16:33N 49°14' W 124°49'0 0.0
2014-Oct-24 15:33N 49°14' W 124°49'0 0.0
2014-Oct-24 14:33N 49°14' W 124°49'0 0.0
2014-Oct-24 13:33N 49°14' W 124°49'0 0.0
2014-Oct-24 12:33N 49°14' W 124°49'0 0.0
2014-Oct-24 11:33N 49°14' W 124°49'0 0.0
2014-Oct-24 10:33N 49°14' W 124°49'0 0.0
2014-Oct-24 09:33N 49°14' W 124°49'0 0.0
2014-Oct-24 08:33N 49°14' W 124°49'8 7.9
2014-Oct-24 07:33N 49°06' W 124°49'14 6.8
2014-Oct-24 05:33N 48°58' W 125°05'8 8.3
2014-Oct-24 04:34N 48°56' W 125°18'8 8.1
2014-Oct-24 03:34N 48°55' W 125°30'3 3.2
2014-Oct-24 02:34N 48°53' W 125°33'8 7.9
2014-Oct-24 01:34N 48°46' W 125°39'8 8.3
2014-Oct-24 00:33N 48°38' W 125°45'8 8.3
2014-Oct-23 23:32N 48°31' W 125°51'7 6.7
2014-Oct-23 22:34N 48°25' W 125°55'6 4.7
2014-Oct-23 21:16N 48°19' W 125°55'7 3.9
2014-Oct-23 19:33N 48°23' W 126°02'7 2.9
2014-Oct-23 17:07N 48°19' W 125°53'6 3.3
2014-Oct-23 15:23N 48°15' W 125°47'7 5.9
2014-Oct-23 14:13N 48°21' W 125°42'5 7.1
2014-Oct-23 13:33N 48°26' W 125°40'7 7.4
2014-Oct-23 12:34N 48°33' W 125°37'7 7.2
2014-Oct-23 11:34N 48°40' W 125°36'7 7.0
2014-Oct-23 10:33N 48°47' W 125°34'7 7.2
2014-Oct-23 09:33N 48°54' W 125°32'2 2.3
2014-Oct-23 08:33N 48°56' W 125°32'0 0.0
2014-Oct-23 07:34N 48°56' W 125°32'0 0.0
2014-Oct-23 06:33N 48°56' W 125°32'0 0.0
2014-Oct-23 05:34N 48°56' W 125°32'0 0.0
2014-Oct-23 04:34N 48°56' W 125°32'0 0.0
2014-Oct-23 03:33N 48°56' W 125°32'0 0.0
2014-Oct-23 02:34N 48°56' W 125°32'0 0.0
2014-Oct-23 01:34N 48°56' W 125°32'0 0.0
2014-Oct-23 00:34N 48°56' W 125°32'0 0.0
2014-Oct-22 23:34N 48°56' W 125°32'0 0.0
2014-Oct-22 22:33N 48°56' W 125°32'0 0.0
2014-Oct-22 21:34N 48°56' W 125°32'0 0.0
2014-Oct-22 20:33N 48°56' W 125°32'0 0.0
2014-Oct-22 19:34N 48°56' W 125°32'0 0.0
2014-Oct-22 18:34N 48°56' W 125°32'0 0.0
2014-Oct-22 17:34N 48°56' W 125°32'0 0.0
2014-Oct-22 16:34N 48°56' W 125°32'0 0.0
2014-Oct-22 15:33N 48°56' W 125°32'0 0.0
2014-Oct-22 14:34N 48°56' W 125°32'0 0.0
2014-Oct-22 13:34N 48°56' W 125°32'0 0.0
2014-Oct-22 12:34N 48°56' W 125°32'0 0.0
2014-Oct-22 11:34N 48°56' W 125°32'0 0.0
2014-Oct-22 10:34N 48°56' W 125°32'0 0.0
2014-Oct-22 09:33N 48°56' W 125°32'0 0.0
2014-Oct-22 08:34N 48°56' W 125°32'0 0.0
2014-Oct-22 07:34N 48°56' W 125°32'0 0.0
2014-Oct-22 06:34N 48°56' W 125°32'0 0.0
2014-Oct-22 05:34N 48°56' W 125°32'0 0.0
2014-Oct-22 04:34N 48°56' W 125°32'0 0.0
2014-Oct-22 03:34N 48°56' W 125°32'0 0.0
2014-Oct-22 02:34N 48°56' W 125°32'0 0.0
2014-Oct-22 01:33N 48°56' W 125°32'0 0.0
2014-Oct-22 00:34N 48°56' W 125°32'0 0.0
2014-Oct-21 23:34N 48°56' W 125°32'0 0.0
2014-Oct-21 22:34N 48°56' W 125°32'0 0.0
2014-Oct-21 21:33N 48°56' W 125°32'0 0.0
2014-Oct-21 20:33N 48°56' W 125°32'0 0.0
2014-Oct-21 19:34N 48°56' W 125°32'0 0.0
2014-Oct-21 18:34N 48°56' W 125°32'0 0.0
2014-Oct-21 17:34N 48°56' W 125°32'0 0.0
2014-Oct-21 16:33N 48°56' W 125°32'0 0.0
2014-Oct-21 15:33N 48°56' W 125°32'0 0.0
2014-Oct-21 14:34N 48°56' W 125°32'0 0.0
2014-Oct-21 13:34N 48°56' W 125°32'0 0.0
2014-Oct-21 12:33N 48°56' W 125°32'0 0.0
2014-Oct-21 11:34N 48°56' W 125°32'0 0.0
2014-Oct-21 10:34N 48°56' W 125°32'0 0.0
2014-Oct-21 09:34N 48°56' W 125°32'0 0.0
2014-Oct-21 08:34N 48°56' W 125°32'0 0.0
2014-Oct-21 07:34N 48°56' W 125°32'0 0.0
2014-Oct-21 06:34N 48°56' W 125°32'0 0.0
2014-Oct-21 05:34N 48°56' W 125°32'0 0.0
2014-Oct-21 04:34N 48°56' W 125°32'0 0.0
2014-Oct-21 03:34N 48°56' W 125°32'0 0.0
2014-Oct-21 02:34N 48°56' W 125°32'0 0.0
2014-Oct-21 01:33N 48°56' W 125°32'0 0.0
2014-Oct-21 00:34N 48°56' W 125°32'0 0.0
2014-Oct-20 23:34N 48°56' W 125°32'0 0.0
2014-Oct-20 22:34N 48°56' W 125°32'0 0.0
2014-Oct-20 21:34N 48°56' W 125°32'0 0.0
2014-Oct-20 20:34N 48°56' W 125°32'0 0.0
2014-Oct-20 19:34N 48°56' W 125°32'0 0.0
2014-Oct-20 18:34N 48°56' W 125°32'0 0.0
2014-Oct-20 17:34N 48°56' W 125°32'0 0.0
2014-Oct-20 16:34N 48°56' W 125°32'0 0.0
2014-Oct-20 15:33N 48°56' W 125°32'0 0.0
2014-Oct-20 14:34N 48°56' W 125°32'0 0.0
2014-Oct-20 13:34N 48°56' W 125°32'0 0.0
2014-Oct-20 12:34N 48°56' W 125°32'0 0.0
2014-Oct-20 11:33N 48°56' W 125°32'0 0.0
2014-Oct-20 10:34N 48°56' W 125°32'0 0.0
2014-Oct-20 09:34N 48°56' W 125°32'0 0.0
2014-Oct-20 08:34N 48°56' W 125°32'0 0.0
2014-Oct-20 07:34N 48°56' W 125°32'0 0.0
2014-Oct-20 06:33N 48°56' W 125°32'0 0.0
2014-Oct-20 05:34N 48°56' W 125°32'0 0.0
2014-Oct-20 04:34N 48°56' W 125°32'0 0.0
2014-Oct-20 03:33N 48°56' W 125°32'0 0.0
2014-Oct-20 02:34N 48°56' W 125°32'0 0.0
2014-Oct-20 01:34N 48°56' W 125°32'0 0.0
2014-Oct-20 00:34N 48°56' W 125°32'0 0.0
2014-Oct-19 23:34N 48°56' W 125°32'0 0.0
2014-Oct-19 22:34N 48°56' W 125°32'0 0.0
2014-Oct-19 21:34N 48°56' W 125°32'0 0.0
2014-Oct-19 20:34N 48°56' W 125°32'0 0.0
2014-Oct-19 19:34N 48°56' W 125°32'0 0.0
2014-Oct-19 18:34N 48°56' W 125°32'0 0.0
2014-Oct-19 17:34N 48°56' W 125°32'0 0.0
2014-Oct-19 16:34N 48°56' W 125°32'0 0.0
2014-Oct-19 15:33N 48°56' W 125°32'0 0.0
2014-Oct-19 14:34N 48°56' W 125°32'0 0.0
2014-Oct-19 13:34N 48°56' W 125°32'0 0.0
2014-Oct-19 12:33N 48°56' W 125°32'0 0.0
2014-Oct-19 11:34N 48°56' W 125°32'0 0.0
2014-Oct-19 10:34N 48°56' W 125°32'0 0.0
2014-Oct-19 09:33N 48°56' W 125°32'0 0.0
2014-Oct-19 08:34N 48°56' W 125°32'0 0.0
2014-Oct-19 07:34N 48°56' W 125°32'0 0.0
2014-Oct-19 06:34N 48°56' W 125°32'0 0.0
2014-Oct-19 05:34N 48°56' W 125°32'0 0.0
2014-Oct-19 04:33N 48°56' W 125°32'0 0.0
2014-Oct-19 03:34N 48°56' W 125°32'0 0.0
2014-Oct-19 02:34N 48°56' W 125°32'0 0.0
2014-Oct-19 01:34N 48°56' W 125°32'0 0.0
2014-Oct-19 00:34N 48°56' W 125°32'0 0.0
2014-Oct-18 23:34N 48°56' W 125°32'0 0.0
2014-Oct-18 22:34N 48°56' W 125°32'0 0.0
2014-Oct-18 21:34N 48°56' W 125°32'0 0.0
2014-Oct-18 20:33N 48°56' W 125°32'0 0.0
2014-Oct-18 19:33N 48°56' W 125°32'0 0.0
2014-Oct-18 18:34N 48°56' W 125°32'0 0.0
2014-Oct-18 17:33N 48°56' W 125°32'0 0.0
2014-Oct-18 16:33N 48°56' W 125°32'0 0.0
2014-Oct-18 15:34N 48°56' W 125°32'0 0.0
2014-Oct-18 14:34N 48°56' W 125°32'0 0.0
2014-Oct-18 13:33N 48°56' W 125°32'0 0.0
2014-Oct-18 12:34N 48°56' W 125°32'0 0.0
2014-Oct-18 11:33N 48°56' W 125°32'0 0.0
2014-Oct-18 10:34N 48°56' W 125°32'0 0.0
2014-Oct-18 09:34N 48°56' W 125°32'0 0.0
2014-Oct-18 08:34N 48°56' W 125°32'0 0.0
2014-Oct-18 07:34N 48°56' W 125°32'0 0.0
2014-Oct-18 06:34N 48°56' W 125°32'0 0.0
2014-Oct-18 05:34N 48°56' W 125°32'0 0.0
2014-Oct-18 04:34N 48°56' W 125°32'0 0.0
2014-Oct-18 03:34N 48°56' W 125°32'0 0.0
2014-Oct-18 02:34N 48°56' W 125°32'0 0.0
2014-Oct-18 01:33N 48°56' W 125°32'0 0.0
2014-Oct-18 00:34N 48°56' W 125°32'0 0.0
2014-Oct-17 23:34N 48°56' W 125°32'0 0.0
2014-Oct-17 22:34N 48°56' W 125°32'0 0.0
2014-Oct-17 21:34N 48°56' W 125°32'0 0.0
2014-Oct-17 20:34N 48°56' W 125°32'0 0.0
2014-Oct-17 19:34N 48°56' W 125°32'0 0.0
2014-Oct-17 18:34N 48°56' W 125°32'0 0.0
2014-Oct-17 17:33N 48°56' W 125°32'0 0.0
2014-Oct-17 16:34N 48°56' W 125°32'0 0.0
2014-Oct-17 15:34N 48°56' W 125°32'0 0.0
2014-Oct-17 14:33N 48°56' W 125°32'0 0.0
2014-Oct-17 13:34N 48°56' W 125°32'0 0.0
2014-Oct-17 12:34N 48°56' W 125°32'0 0.0
2014-Oct-17 11:34N 48°56' W 125°32'0 0.0
2014-Oct-17 10:34N 48°56' W 125°32'0 0.0
2014-Oct-17 09:33N 48°56' W 125°32'0 0.0
2014-Oct-17 08:34N 48°56' W 125°32'0 0.0
2014-Oct-17 07:34N 48°56' W 125°32'0 0.0
2014-Oct-17 06:34N 48°56' W 125°32'0 0.0
2014-Oct-17 05:34N 48°56' W 125°32'0 0.0
2014-Oct-17 04:33N 48°56' W 125°32'0 0.0
2014-Oct-17 03:34N 48°56' W 125°32'0 0.0
2014-Oct-17 02:33N 48°56' W 125°32'0 0.0
2014-Oct-17 01:34N 48°56' W 125°32'0 0.0
2014-Oct-17 00:34N 48°56' W 125°32'0 0.0
2014-Oct-16 23:34N 48°56' W 125°32'0 0.0
2014-Oct-16 22:34N 48°56' W 125°32'0 0.0
2014-Oct-16 21:34N 48°56' W 125°32'0 0.0
2014-Oct-16 20:34N 48°56' W 125°32'0 0.0
2014-Oct-16 19:34N 48°56' W 125°32'0 0.0
2014-Oct-16 18:34N 48°56' W 125°32'0 0.0
2014-Oct-16 17:34N 48°56' W 125°32'0 0.0
2014-Oct-16 16:34N 48°56' W 125°32'0 0.0
2014-Oct-16 15:34N 48°56' W 125°32'0 0.0
2014-Oct-16 14:34N 48°56' W 125°32'0 0.0
2014-Oct-16 13:34N 48°56' W 125°32'0 0.0
2014-Oct-16 12:34N 48°56' W 125°32'0 0.0
2014-Oct-16 11:34N 48°56' W 125°32'0 0.0
2014-Oct-16 10:34N 48°56' W 125°32'0 0.0
2014-Oct-16 09:34N 48°56' W 125°32'0 0.0
2014-Oct-16 08:34N 48°56' W 125°32'0 0.0
2014-Oct-16 07:33N 48°56' W 125°32'0 0.0
2014-Oct-16 06:34N 48°56' W 125°32'0 0.0
2014-Oct-16 05:34N 48°56' W 125°32'0 0.0
2014-Oct-16 04:34N 48°56' W 125°32'0 0.0
2014-Oct-16 03:34N 48°56' W 125°32'0 0.0
2014-Oct-16 02:34N 48°56' W 125°32'0 0.0
2014-Oct-16 01:34N 48°56' W 125°32'0 0.0
2014-Oct-16 00:34N 48°56' W 125°32'0 0.0
2014-Oct-15 23:33N 48°56' W 125°32'0 0.0
2014-Oct-15 22:34N 48°56' W 125°32'0 0.0
2014-Oct-15 21:34N 48°56' W 125°32'0 0.0
2014-Oct-15 20:34N 48°56' W 125°32'0 0.0
2014-Oct-15 19:34N 48°56' W 125°32'0 0.0
2014-Oct-15 18:34N 48°56' W 125°32'0 0.0
2014-Oct-15 17:34N 48°56' W 125°32'0 0.0
2014-Oct-15 16:34N 48°56' W 125°32'0 0.0
2014-Oct-15 15:34N 48°56' W 125°32'0 0.0
2014-Oct-15 14:34N 48°56' W 125°32'0 0.0
2014-Oct-15 13:34N 48°56' W 125°32'0 0.0
2014-Oct-15 12:33N 48°56' W 125°32'0 0.0
2014-Oct-15 11:34N 48°56' W 125°32'0 0.0
2014-Oct-15 10:34N 48°56' W 125°32'0 0.0
2014-Oct-15 09:34N 48°56' W 125°32'0 0.0
2014-Oct-15 08:34N 48°56' W 125°32'0 0.0
2014-Oct-15 07:34N 48°56' W 125°32'0 0.0
2014-Oct-15 06:34N 48°56' W 125°32'1 1.4
2014-Oct-15 05:34N 48°55' W 125°32'8 7.7
2014-Oct-15 04:34N 48°56' W 125°44'8 7.6
2014-Oct-15 03:34N 48°57' W 125°55'7 7.1
2014-Oct-15 02:33N 48°58' W 126°06'8 7.9
2014-Oct-15 01:33N 48°59' W 126°18'7 7.4
2014-Oct-15 00:33N 48°59' W 126°29'5 4.2
2014-Oct-14 23:24N 48°58' W 126°36'2 2.6
2014-Oct-14 22:28N 49°00' W 126°38'4 3.9
2014-Oct-14 21:30N 49°00' W 126°44'4 3.5
2014-Oct-14 20:26N 49°04' W 126°46'4 3.3
2014-Oct-14 19:18N 49°01' W 126°42'4 5.7
2014-Oct-14 18:33N 48°59' W 126°37'  

Dump ship's entire track history